createdAt,value
2019-05-06T00:02:44.927Z,94960.78
2019-05-06T00:05:54.293Z,94959.33
2019-05-06T00:09:03.928Z,94964.49
2019-05-06T00:12:11.312Z,94960.99
2019-05-06T00:15:18.907Z,94964.19
2019-05-06T00:18:26.944Z,94960.12
2019-05-06T00:21:35.475Z,94959.86
2019-05-06T00:24:49.777Z,94961.61
2019-05-06T00:28:15.532Z,94959.09
2019-05-06T00:31:24.105Z,94956.00
2019-05-06T00:34:34.066Z,94963.66
2019-05-06T00:37:44.133Z,94961.53
2019-05-06T00:40:54.868Z,94964.86
2019-05-06T00:44:04.058Z,94963.35
2019-05-06T00:47:13.468Z,94964.00
2019-05-06T00:50:20.799Z,94963.36
2019-05-06T00:53:30.496Z,94969.73
2019-05-06T00:56:37.782Z,94969.53
2019-05-06T00:59:44.995Z,94970.91
2019-05-06T01:02:54.286Z,94975.88
2019-05-06T01:06:03.883Z,94976.03
2019-05-06T01:09:14.159Z,94972.66
2019-05-06T01:12:23.971Z,94976.91
2019-05-06T01:15:34.259Z,94975.95
2019-05-06T01:18:43.441Z,94979.16
2019-05-06T01:21:51.211Z,94976.47
2019-05-06T01:24:58.781Z,94976.73
2019-05-06T01:28:06.508Z,94971.95
2019-05-06T01:31:14.344Z,94977.77
2019-05-06T01:34:24.543Z,94985.48
2019-05-06T01:37:34.588Z,94979.03
2019-05-06T01:40:51.714Z,94987.20
2019-05-06T01:43:59.242Z,94990.60
2019-05-06T01:47:08.913Z,94994.53
2019-05-06T01:50:16.566Z,94994.05
2019-05-06T01:53:24.236Z,94994.13
2019-05-06T01:56:33.714Z,94997.30
2019-05-06T01:59:41.221Z,94989.42
2019-05-06T02:02:49.047Z,94988.37
2019-05-06T02:05:56.613Z,94992.33
2019-05-06T02:09:14.336Z,94995.47
2019-05-06T02:12:21.834Z,94998.61
2019-05-06T02:15:29.384Z,95000.44
2019-05-06T02:18:36.895Z,94996.55
2019-05-06T02:22:04.229Z,95000.44
2019-05-06T02:25:16.239Z,95002.23
2019-05-06T02:28:23.694Z,95007.43
2019-05-06T02:32:24.568Z,95008.44
2019-05-06T02:35:26.276Z,95013.44
2019-05-06T02:38:39.760Z,95014.04
2019-05-06T02:41:42.976Z,95007.99
2019-05-06T02:44:53.332Z,95018.19
2019-05-06T02:48:22.718Z,95019.30
2019-05-06T02:51:33.331Z,95018.98
2019-05-06T02:54:42.571Z,95025.70
2019-05-06T02:57:49.310Z,95027.84
2019-05-06T03:00:56.706Z,95031.20
2019-05-06T03:04:04.831Z,95033.07
2019-05-06T03:07:14.506Z,95029.33
2019-05-06T03:10:24.783Z,95035.35
2019-05-06T03:13:33.960Z,95034.79
2019-05-06T03:16:43.692Z,95035.83
2019-05-06T03:19:52.668Z,95038.97
2019-05-06T03:23:05.000Z,95042.34
2019-05-06T03:26:13.708Z,95044.17
2019-05-06T03:29:21.574Z,95051.11
2019-05-06T03:32:36.051Z,95048.09
2019-05-06T03:35:56.452Z,95048.84
2019-05-06T03:38:47.391Z,95041.02
2019-05-06T03:41:54.985Z,95050.15
2019-05-06T03:45:09.526Z,95049.75
2019-05-06T03:48:23.932Z,95053.20
2019-05-06T03:51:34.270Z,95054.55
2019-05-06T03:54:45.001Z,95056.91
2019-05-06T03:57:55.085Z,95060.39
2019-05-06T04:01:03.857Z,95056.43
2019-05-06T04:04:12.809Z,95062.45
2019-05-06T04:07:23.377Z,95063.72
2019-05-06T04:10:33.698Z,95068.13
2019-05-06T04:13:40.428Z,95074.84
2019-05-06T04:16:54.158Z,95081.08
2019-05-06T04:20:12.782Z,95082.69
2019-05-06T04:23:49.001Z,95085.31
2019-05-06T04:27:46.987Z,95088.23
2019-05-06T04:30:57.432Z,95091.75
2019-05-06T04:34:13.929Z,95097.78
2019-05-06T04:37:16.369Z,95092.17
2019-05-06T04:40:24.185Z,95100.50
2019-05-06T04:43:33.589Z,95092.73
2019-05-06T04:46:44.396Z,95096.44
2019-05-06T04:49:53.073Z,95099.08
2019-05-06T04:53:05.297Z,95104.25
2019-05-06T04:56:14.308Z,95109.38
2019-05-06T04:59:23.154Z,95105.11
2019-05-06T05:02:33.656Z,95109.08
2019-05-06T05:05:40.533Z,95113.66
2019-05-06T05:08:48.307Z,95109.63
2019-05-06T05:12:02.523Z,95114.38
2019-05-06T05:15:32.509Z,95108.15
2019-05-06T05:18:44.264Z,95107.83
2019-05-06T05:21:54.707Z,95114.33
2019-05-06T05:25:03.431Z,95114.03
2019-05-06T05:28:13.150Z,95117.78
2019-05-06T05:31:22.890Z,95120.58
2019-05-06T05:34:37.948Z,95127.17
2019-05-06T05:37:39.479Z,95131.91
2019-05-06T05:40:47.186Z,95138.12
2019-05-06T05:44:09.544Z,95137.30
2019-05-06T05:47:17.199Z,95135.67
2019-05-06T05:50:29.445Z,95137.63
2019-05-06T05:53:37.337Z,95129.81
2019-05-06T05:56:44.879Z,95135.67
2019-05-06T05:59:52.877Z,95136.88
2019-05-06T06:03:02.764Z,95136.58
2019-05-06T06:06:12.469Z,95136.73
2019-05-06T06:09:22.386Z,95132.39
2019-05-06T06:12:32.337Z,95135.67
2019-05-06T06:15:59.309Z,95138.98
2019-05-06T06:19:22.143Z,95140.20
2019-05-06T06:22:30.387Z,95141.22
2019-05-06T06:25:38.169Z,95141.80
2019-05-06T06:28:45.899Z,95146.84
2019-05-06T06:32:16.081Z,95140.40
2019-05-06T06:35:32.326Z,95144.70
2019-05-06T06:38:53.124Z,95150.77
2019-05-06T06:42:02.842Z,95145.25
2019-05-06T06:45:12.313Z,95143.22
2019-05-06T06:48:19.948Z,95139.88
2019-05-06T06:51:27.281Z,95140.76
2019-05-06T06:54:34.734Z,95147.41
2019-05-06T06:57:51.927Z,95142.03
2019-05-06T07:01:17.973Z,95138.01
2019-05-06T07:04:46.359Z,95143.37
2019-05-06T07:07:54.052Z,95148.12
2019-05-06T07:11:02.215Z,95148.60
2019-05-06T07:14:09.828Z,95141.35
2019-05-06T07:17:17.444Z,95140.41
2019-05-06T07:20:26.924Z,95137.31
2019-05-06T07:23:35.140Z,95132.83
2019-05-06T07:26:47.017Z,95136.71
2019-05-06T07:29:54.308Z,95138.23
2019-05-06T07:33:03.647Z,95135.75
2019-05-06T07:36:13.020Z,95127.56
2019-05-06T07:39:23.744Z,95125.77
2019-05-06T07:42:36.850Z,95124.63
2019-05-06T07:45:47.655Z,95126.95
2019-05-06T07:48:55.340Z,95127.39
2019-05-06T07:52:03.096Z,95129.56
2019-05-06T07:55:12.004Z,95140.77
2019-05-06T07:58:19.319Z,95138.07
2019-05-06T08:01:26.497Z,95145.08
2019-05-06T08:04:34.054Z,95139.63
2019-05-06T08:07:42.261Z,95137.70
2019-05-06T08:10:49.964Z,95148.78
2019-05-06T08:13:57.466Z,95141.69
2019-05-06T08:17:06.684Z,95145.91
2019-05-06T08:20:14.734Z,95152.21
2019-05-06T08:23:42.689Z,95154.56
2019-05-06T08:26:52.093Z,95152.21
2019-05-06T08:29:59.255Z,95150.34
2019-05-06T08:33:06.922Z,95154.84
2019-05-06T08:36:22.455Z,95152.82
2019-05-06T08:39:29.781Z,95146.36
2019-05-06T08:42:37.382Z,95154.30
2019-05-06T08:45:45.103Z,95150.55
2019-05-06T08:48:52.942Z,95148.89
2019-05-06T08:52:05.321Z,95145.41
2019-05-06T08:55:15.152Z,95139.83
2019-05-06T08:58:43.154Z,95143.94
2019-05-06T09:01:53.345Z,95145.44
2019-05-06T09:05:02.746Z,95147.36
2019-05-06T09:08:09.673Z,95152.73
2019-05-06T09:11:17.105Z,95147.52
2019-05-06T09:14:24.601Z,95149.26
2019-05-06T09:17:33.002Z,95146.11
2019-05-06T09:20:43.024Z,95144.72
2019-05-06T09:23:49.824Z,95143.10
2019-05-06T09:27:15.096Z,95146.87
2019-05-06T09:30:43.873Z,95140.40
2019-05-06T09:33:58.947Z,95142.09
2019-05-06T09:37:17.696Z,95145.14
2019-05-06T09:40:25.502Z,95141.14
2019-05-06T09:43:33.194Z,95130.44
2019-05-06T09:46:42.681Z,95129.16
2019-05-06T09:49:50.111Z,95126.80
2019-05-06T09:52:57.399Z,95133.40
2019-05-06T09:56:23.151Z,95125.45
2019-05-06T09:59:32.197Z,95135.08
2019-05-06T10:02:39.600Z,95142.72
2019-05-06T10:05:46.983Z,95136.78
2019-05-06T10:08:54.453Z,95141.81
2019-05-06T10:12:02.411Z,95138.48
2019-05-06T10:15:12.597Z,95151.23
2019-05-06T10:18:19.817Z,95158.03
2019-05-06T10:21:27.419Z,95151.72
2019-05-06T10:24:35.024Z,95152.56
2019-05-06T10:27:46.294Z,95154.77
2019-05-06T10:30:53.903Z,95154.51
2019-05-06T10:34:14.006Z,95157.32
2019-05-06T10:37:44.228Z,95153.41
2019-05-06T10:41:03.676Z,95151.14
2019-05-06T10:44:45.342Z,95149.22
2019-05-06T10:47:53.908Z,95149.71
2019-05-06T10:51:13.081Z,95154.60
2019-05-06T10:54:19.320Z,95150.75
2019-05-06T10:57:32.772Z,95151.02
2019-05-06T11:00:42.544Z,95150.27
2019-05-06T11:03:49.844Z,95145.45
2019-05-06T11:06:56.996Z,95152.88
2019-05-06T11:10:04.627Z,95139.98
2019-05-06T11:13:12.948Z,95140.48
2019-05-06T11:16:23.725Z,95145.52
2019-05-06T11:19:29.997Z,95141.08
2019-05-06T11:22:37.495Z,95142.31
2019-05-06T11:25:44.663Z,95147.23
2019-05-06T11:28:56.441Z,95146.77
2019-05-06T11:32:10.208Z,95152.75
2019-05-06T11:35:52.558Z,95158.32
2019-05-06T11:38:58.802Z,95161.47
2019-05-06T11:42:23.899Z,95159.52
2019-05-06T11:45:15.823Z,95162.05
2019-05-06T11:48:22.983Z,95152.50
2019-05-06T11:51:32.993Z,95160.45
2019-05-06T11:54:42.267Z,95165.42
2019-05-06T11:57:49.650Z,95167.22
2019-05-06T12:01:02.572Z,95165.12
2019-05-06T12:04:09.110Z,95165.84
2019-05-06T12:07:17.634Z,95166.88
2019-05-06T12:10:25.093Z,95169.72
2019-05-06T12:13:33.837Z,95174.77
2019-05-06T12:16:41.545Z,95168.86
2019-05-06T12:19:48.831Z,95169.05
2019-05-06T12:22:56.063Z,95173.42
2019-05-06T12:26:03.503Z,95166.39
2019-05-06T12:29:12.718Z,95167.66
2019-05-06T12:32:35.615Z,95166.37
2019-05-06T12:35:46.671Z,95169.02
2019-05-06T12:39:15.801Z,95168.03
2019-05-06T12:42:34.594Z,95171.66
2019-05-06T12:45:43.910Z,95175.98
2019-05-06T12:48:52.159Z,95175.66
2019-05-06T12:51:59.450Z,95179.75
2019-05-06T12:55:18.389Z,95172.05
2019-05-06T12:58:21.094Z,95183.64
2019-05-06T13:01:27.541Z,95181.63
2019-05-06T13:04:49.479Z,95190.48
2019-05-06T13:07:46.730Z,95181.69
2019-05-06T13:10:54.895Z,95187.64
2019-05-06T13:14:04.187Z,95187.36
2019-05-06T13:17:13.710Z,95184.09
2019-05-06T13:20:22.881Z,95190.45
2019-05-06T13:23:39.090Z,95185.19
2019-05-06T13:26:46.361Z,95189.98
2019-05-06T13:29:53.924Z,95185.20
2019-05-06T13:33:08.587Z,95179.76
2019-05-06T13:36:17.012Z,95186.72
2019-05-06T13:39:24.489Z,95184.20
2019-05-06T13:42:33.933Z,95189.43
2019-05-06T13:45:44.293Z,95187.49
2019-05-06T13:49:14.242Z,95191.82
2019-05-06T13:52:25.125Z,95185.69
2019-05-06T13:55:33.089Z,95190.00
2019-05-06T13:58:42.956Z,95184.42
2019-05-06T14:02:08.180Z,95193.06
2019-05-06T14:05:16.697Z,95189.52
2019-05-06T14:08:24.620Z,95196.30
2019-05-06T14:11:32.543Z,95193.19
2019-05-06T14:14:42.957Z,95195.03
2019-05-06T14:17:49.535Z,95201.13
2019-05-06T14:20:56.918Z,95195.96
2019-05-06T14:24:04.530Z,95193.22
2019-05-06T14:27:13.813Z,95194.46
2019-05-06T14:30:39.663Z,95189.55
2019-05-06T14:33:47.125Z,95190.16
2019-05-06T14:36:54.499Z,95187.04
2019-05-06T14:40:04.140Z,95191.64
2019-05-06T14:43:13.421Z,95197.30
2019-05-06T14:46:22.837Z,95198.41
2019-05-06T14:49:32.598Z,95196.08
2019-05-06T14:52:42.488Z,95194.64
2019-05-06T14:55:51.436Z,95198.16
2019-05-06T14:59:07.980Z,95198.14
2019-05-06T15:02:16.532Z,95197.36
2019-05-06T15:05:24.255Z,95190.17
2019-05-06T15:08:32.219Z,95191.80
2019-05-06T15:11:40.071Z,95195.62
2019-05-06T15:14:47.965Z,95190.93
2019-05-06T15:17:55.439Z,95186.36
2019-05-06T15:21:32.241Z,95182.56
2019-05-06T15:24:21.894Z,95187.02
2019-05-06T15:27:30.190Z,95192.94
2019-05-06T15:30:47.442Z,95189.34
2019-05-06T15:33:58.090Z,95195.19
2019-05-06T15:37:15.109Z,95194.52
2019-05-06T15:40:31.825Z,95196.59
2019-05-06T15:43:33.546Z,95193.30
2019-05-06T15:46:43.032Z,95191.97
2019-05-06T15:49:52.634Z,95195.05
2019-05-06T15:53:01.925Z,95197.72
2019-05-06T15:56:09.580Z,95200.30
2019-05-06T15:59:18.051Z,95195.06
2019-05-06T16:02:25.593Z,95198.42
2019-05-06T16:05:34.514Z,95201.38
2019-05-06T16:08:43.200Z,95206.79
2019-05-06T16:11:53.421Z,95202.03
2019-05-06T16:15:02.584Z,95206.06
2019-05-06T16:18:12.790Z,95205.70
2019-05-06T16:21:22.868Z,95206.59
2019-05-06T16:24:38.194Z,95202.69
2019-05-06T16:27:53.822Z,95205.28
2019-05-06T16:30:59.876Z,95207.25
2019-05-06T16:34:07.088Z,95205.38
2019-05-06T16:37:14.533Z,95205.75
2019-05-06T16:40:23.089Z,95204.82
2019-05-06T16:43:33.686Z,95210.61
2019-05-06T16:46:42.645Z,95216.03
2019-05-06T16:49:53.021Z,95207.87
2019-05-06T16:53:02.531Z,95213.42
2019-05-06T16:56:38.360Z,95211.72
2019-05-06T16:59:45.962Z,95209.20
2019-05-06T17:03:02.971Z,95218.31
2019-05-06T17:06:16.747Z,95216.91
2019-05-06T17:09:27.538Z,95216.77
2019-05-06T17:12:33.357Z,95211.61
2019-05-06T17:15:40.773Z,95226.17
2019-05-06T17:18:48.274Z,95226.93
2019-05-06T17:21:55.536Z,95229.94
2019-05-06T17:25:03.161Z,95229.28
2019-05-06T17:28:22.268Z,95233.55
2019-05-06T17:31:52.453Z,95235.51
2019-05-06T17:35:02.604Z,95236.87
2019-05-06T17:38:14.732Z,95241.17
2019-05-06T17:41:23.780Z,95239.42
2019-05-06T17:44:32.347Z,95238.36
2019-05-06T17:47:47.395Z,95240.41
2019-05-06T17:51:13.728Z,95244.50
2019-05-06T17:54:24.086Z,95243.10
2019-05-06T17:57:33.118Z,95243.22
2019-05-06T18:00:42.775Z,95255.66
2019-05-06T18:03:52.534Z,95249.47
2019-05-06T18:06:59.886Z,95247.98
2019-05-06T18:10:07.564Z,95254.70
2019-05-06T18:13:14.989Z,95253.25
2019-05-06T18:16:22.405Z,95256.37
2019-05-06T18:19:29.963Z,95265.46
2019-05-06T18:22:37.901Z,95265.31
2019-05-06T18:25:45.363Z,95272.84
2019-05-06T18:28:53.016Z,95281.82
2019-05-06T18:32:36.051Z,95278.69
2019-05-06T18:35:44.695Z,95277.18
2019-05-06T18:38:52.713Z,95290.97
2019-05-06T18:42:14.940Z,95292.76
2019-05-06T18:45:12.461Z,95297.56
2019-05-06T18:48:21.834Z,95311.71
2019-05-06T18:51:30.464Z,95307.77
2019-05-06T18:54:38.167Z,95311.50
2019-05-06T18:57:45.649Z,95316.62
2019-05-06T19:00:53.346Z,95315.56
2019-05-06T19:04:08.131Z,95324.50
2019-05-06T19:07:17.151Z,95324.44
2019-05-06T19:10:29.678Z,95329.66
2019-05-06T19:13:37.380Z,95330.44
2019-05-06T19:16:49.875Z,95330.63
2019-05-06T19:19:54.206Z,95337.13
2019-05-06T19:23:02.444Z,95342.52
2019-05-06T19:26:12.309Z,95348.31
2019-05-06T19:29:19.786Z,95347.62
2019-05-06T19:32:27.760Z,95356.34
2019-05-06T19:35:37.122Z,95357.27
2019-05-06T19:38:45.451Z,95362.17
2019-05-06T19:41:52.990Z,95363.43
2019-05-06T19:45:02.461Z,95366.20
2019-05-06T19:48:13.363Z,95366.70
2019-05-06T19:51:22.537Z,95370.16
2019-05-06T19:54:30.490Z,95369.84
2019-05-06T19:57:38.139Z,95371.08
2019-05-06T20:00:46.771Z,95372.67
2019-05-06T20:03:54.449Z,95372.42
2019-05-06T20:07:22.842Z,95370.71
2019-05-06T20:10:38.459Z,95371.89
2019-05-06T20:13:47.172Z,95366.87
2019-05-06T20:16:54.711Z,95374.08
2019-05-06T20:20:03.137Z,95370.94
2019-05-06T20:23:12.583Z,95371.77
2019-05-06T20:26:21.972Z,95372.75
2019-05-06T20:29:32.406Z,95372.93
2019-05-06T20:32:39.905Z,95367.23
2019-05-06T20:35:47.391Z,95369.00
2019-05-06T20:38:55.379Z,95363.77
2019-05-06T20:42:03.044Z,95362.11
2019-05-06T20:45:12.849Z,95360.80
2019-05-06T20:48:20.435Z,95353.79
2019-05-06T20:51:27.744Z,95351.10
2019-05-06T20:54:35.464Z,95349.17
2019-05-06T20:57:42.860Z,95349.42
2019-05-06T21:00:52.147Z,95346.84
2019-05-06T21:04:02.071Z,95343.79
2019-05-06T21:07:09.580Z,95341.48
2019-05-06T21:10:17.396Z,95348.12
2019-05-06T21:13:31.753Z,95349.14
2019-05-06T21:16:35.078Z,95343.25
2019-05-06T21:19:42.661Z,95349.73
2019-05-06T21:22:52.639Z,95351.37
2019-05-06T21:26:00.385Z,95345.75
2019-05-06T21:29:07.920Z,95349.59
2019-05-06T21:32:15.357Z,95345.95
2019-05-06T21:35:22.990Z,95336.61
2019-05-06T21:38:30.262Z,95333.62
2019-05-06T21:41:37.738Z,95343.55
2019-05-06T21:44:45.144Z,95334.88
2019-05-06T21:47:53.027Z,95337.42
2019-05-06T21:51:00.492Z,95330.69
2019-05-06T21:54:07.696Z,95327.63
2019-05-06T21:57:15.284Z,95325.83
2019-05-06T22:00:37.935Z,95327.26
2019-05-06T22:03:45.571Z,95330.67
2019-05-06T22:06:53.551Z,95327.70
2019-05-06T22:10:00.873Z,95322.13
2019-05-06T22:13:08.930Z,95325.10
2019-05-06T22:16:16.633Z,95319.67
2019-05-06T22:19:24.421Z,95313.20
2019-05-06T22:22:32.810Z,95318.19
2019-05-06T22:25:40.292Z,95322.78
2019-05-06T22:28:47.957Z,95319.13
2019-05-06T22:31:55.852Z,95311.80
2019-05-06T22:35:04.704Z,95311.46
2019-05-06T22:38:12.402Z,95311.27
2019-05-06T22:41:20.200Z,95306.25
2019-05-06T22:44:28.511Z,95304.73
2019-05-06T22:47:36.306Z,95303.98
2019-05-06T22:50:43.576Z,95300.31
2019-05-06T22:53:53.232Z,95297.77
2019-05-06T22:57:02.335Z,95291.85
2019-05-06T23:00:17.212Z,95289.89
2019-05-06T23:03:25.670Z,95288.30
2019-05-06T23:06:33.146Z,95296.02
2019-05-06T23:09:42.519Z,95291.73
2019-05-06T23:12:52.176Z,95297.62
2019-05-06T23:15:59.311Z,95291.04
2019-05-06T23:19:07.053Z,95295.68
2019-05-06T23:22:14.412Z,95295.59
2019-05-06T23:25:22.139Z,95287.45
2019-05-06T23:28:29.319Z,95291.09
2019-05-06T23:31:37.160Z,95289.63
2019-05-06T23:34:44.535Z,95284.72
2019-05-06T23:38:47.597Z,95293.30
2019-05-06T23:42:52.672Z,95281.98
2019-05-06T23:46:55.694Z,95286.77
2019-05-06T23:50:59.348Z,95283.28
2019-05-06T23:55:03.259Z,95282.93
2019-05-06T23:58:09.583Z,95278.22
